Bookmark and Share
Track history (hours):
 

Drifting buoy 13519

Last reported at 2013-Jun-19 11:35 UTC. Time now 2014-Apr-18 10:43 UTC.
Position N 14°04' W 050°39'.
Warning: this ship's position is months out of date.

NotesDate/timePositionNaut miles runAvg speedWind from/ knotsBaromVisibWave heightAir tempDewpointWater temp
2013-Jun-19 11:35N 14°04' W 050°39'0 0.0
2013-Jun-19 10:25N 14°04' W 050°39'1 2.0
2013-Jun-19 09:53N 14°04' W 050°38'0 0.0
2013-Jun-19 08:47N 14°04' W 050°38'2 0.6
2013-Jun-19 05:50N 14°04' W 050°36'024.7
2013-Jun-19 05:49N 14°04' W 050°36'333.4
2013-Jun-19 05:44N 14°05' W 050°33'0 0.0
2013-Jun-19 04:05N 14°05' W 050°33'0 0.0
2013-Jun-19 01:35N 14°05' W 050°33'0 0.3
2013-Jun-19 00:50N 14°05' W 050°33'0 2.7
2013-Jun-19 00:47N 14°05' W 050°33'0 0.0
2013-Jun-18 23:50N 14°05' W 050°33'0 0.4
2013-Jun-18 23:02N 14°05' W 050°33'2 1.0
2013-Jun-18 21:25N 14°05' W 050°31'0 0.2
2013-Jun-18 20:07N 14°05' W 050°31'0 2.8
2013-Jun-18 20:02N 14°05' W 050°31'1 0.9
2013-Jun-18 18:32N 14°06' W 050°30'0 0.3
2013-Jun-18 17:19N 14°05' W 050°29'0 0.0
2013-Jun-18 16:47N 14°05' W 050°29'0 0.0
2013-Jun-18 15:37N 14°05' W 050°29'0 0.4
2013-Jun-18 14:26N 14°05' W 050°29'1 1.0
2013-Jun-18 13:43N 14°05' W 050°28'0 0.9
2013-Jun-18 13:34N 14°05' W 050°28'113.7
2013-Jun-18 13:29N 14°05' W 050°27'1 2.0
2013-Jun-18 12:49N 14°05' W 050°29'1 9.1
2013-Jun-18 12:40N 14°05' W 050°27'0 0.0
2013-Jun-18 11:59N 14°05' W 050°27'0 0.0
2013-Jun-18 11:47N 14°05' W 050°27'0 0.0
2013-Jun-18 10:53N 14°05' W 050°27'0 0.0
2013-Jun-18 09:17N 14°05' W 050°27'2 2.3
2013-Jun-18 08:38N 14°04' W 050°26'0 0.0
2013-Jun-18 07:34N 14°04' W 050°26'1 2.3
2013-Jun-18 07:11N 14°04' W 050°25'0 0.0
2013-Jun-18 06:59N 14°04' W 050°25'0 0.0
2013-Jun-18 06:04N 14°04' W 050°25'0 2.8
2013-Jun-18 05:59N 14°04' W 050°25'2 4.3
2013-Jun-18 05:35N 14°04' W 050°23'0 0.0
2013-Jun-18 04:17N 14°04' W 050°23'1 0.3
2013-Jun-18 01:56N 14°04' W 050°22'1 0.9
2013-Jun-18 01:13N 14°03' W 050°22'0 5.2
2013-Jun-18 01:11N 14°03' W 050°22'1 2.5
2013-Jun-18 00:59N 14°04' W 050°23'1 1.2
2013-Jun-18 00:14N 14°03' W 050°22'2 2.0
2013-Jun-17 23:26N 14°03' W 050°20'1 5.1
2013-Jun-17 23:14N 14°02' W 050°19'1 1.0
2013-Jun-17 22:14N 14°03' W 050°20'2 1.0
2013-Jun-17 20:22N 14°03' W 050°18'229.3
2013-Jun-17 20:17N 14°03' W 050°16'1 0.4
2013-Jun-17 18:44N 14°02' W 050°16'0 0.0
2013-Jun-17 17:29N 14°02' W 050°16'1 1.8
2013-Jun-17 16:58N 14°02' W 050°16'0 0.1
2013-Jun-17 15:46N 14°02' W 050°16'1 0.9
2013-Jun-17 14:43N 14°02' W 050°15'0 0.3
2013-Jun-17 14:01N 14°01' W 050°15'1 2.2
2013-Jun-17 13:40N 14°02' W 050°14'2 1.3
2013-Jun-17 11:58N 14°01' W 050°12'1 0.2
2013-Jun-17 09:49N 14°01' W 050°11'0 0.0
2013-Jun-17 09:05N 14°01' W 050°11'0 0.3
2013-Jun-17 08:08N 14°01' W 050°11'1 1.5
2013-Jun-17 07:23N 14°01' W 050°10'0 0.0
2013-Jun-17 06:14N 14°01' W 050°10'0 1.2
2013-Jun-17 06:11N 14°01' W 050°10'1 1.4
2013-Jun-17 05:46N 14°01' W 050°09'112.7
2013-Jun-17 05:43N 14°01' W 050°09'1 0.9
2013-Jun-17 04:28N 14°01' W 050°08'1 0.4
2013-Jun-17 02:16N 14°00' W 050°07'0 0.2
2013-Jun-17 01:32N 14°00' W 050°07'0 0.9
2013-Jun-17 01:10N 14°00' W 050°07'0 3.9
2013-Jun-17 01:08N 14°00' W 050°07'0 0.0
2013-Jun-17 00:38N 14°00' W 050°07'1 1.1
2013-Jun-16 23:52N 13°60' W 050°06'0 2.5
2013-Jun-16 23:43N 13°60' W 050°06'0 0.0
2013-Jun-16 23:31N 13°60' W 050°06'2 0.8
2013-Jun-16 20:41N 14°00' W 050°04'2 1.3
2013-Jun-16 18:56N 14°00' W 050°02'1 8.8
2013-Jun-16 18:50N 14°00' W 050°02'1 0.8
2013-Jun-16 17:40N 14°01' W 050°02'0 1.9
2013-Jun-16 17:29N 14°01' W 050°02'0 0.0
2013-Jun-16 17:13N 14°01' W 050°02'1 1.0
2013-Jun-16 15:59N 13°60' W 050°01'1 0.8
2013-Jun-16 14:20N 13°60' W 049°60'1 1.7
2013-Jun-16 13:53N 14°00' W 049°59'0 7.3
2013-Jun-16 13:49N 13°60' W 049°59'0 0.0
2013-Jun-16 12:46N 13°60' W 049°59'0 0.8
2013-Jun-16 12:11N 13°60' W 049°59'1 1.3
2013-Jun-16 11:43N 13°60' W 049°58'1 0.5
2013-Jun-16 10:20N 14°00' W 049°57'0 0.3
2013-Jun-16 09:29N 13°60' W 049°57'1 0.4
2013-Jun-16 07:46N 13°60' W 049°57'0 0.0
2013-Jun-16 07:40N 13°60' W 049°57'0 4.8
2013-Jun-16 07:37N 13°60' W 049°57'0 4.2
2013-Jun-16 07:34N 13°60' W 049°56'0 0.1
2013-Jun-16 06:22N 13°60' W 049°57'1 1.9
2013-Jun-16 05:55N 13°60' W 049°56'0 0.0
2013-Jun-16 04:38N 13°60' W 049°56'2 0.8
2013-Jun-16 01:46N 13°58' W 049°54'0 1.1
2013-Jun-16 01:22N 13°58' W 049°53'0 0.4
2013-Jun-16 00:59N 13°58' W 049°53'0 5.9
2013-Jun-16 00:56N 13°58' W 049°53'0 0.0
2013-Jun-16 00:13N 13°58' W 049°53'1 2.4
2013-Jun-15 23:43N 13°59' W 049°52'0 0.7
2013-Jun-15 23:14N 13°58' W 049°52'3 1.5
2013-Jun-15 21:05N 13°58' W 049°49'0 0.3
2013-Jun-15 19:07N 13°58' W 049°49'1 1.0
2013-Jun-15 17:50N 13°58' W 049°48'113.1
2013-Jun-15 17:47N 13°58' W 049°47'0 0.0
2013-Jun-15 17:23N 13°58' W 049°47'2 1.5
2013-Jun-15 16:10N 13°58' W 049°45'1 0.6
2013-Jun-15 14:02N 13°57' W 049°44'0 0.0
2013-Jun-15 13:47N 13°57' W 049°44'0 0.0
2013-Jun-15 13:05N 13°57' W 049°44'1 1.1
2013-Jun-15 12:22N 13°57' W 049°44'0 1.7
2013-Jun-15 12:08N 13°57' W 049°43'122.3
2013-Jun-15 12:04N 13°58' W 049°42'0 0.0
2013-Jun-15 10:49N 13°58' W 049°42'0 0.0
2013-Jun-15 10:44N 13°58' W 049°42'0 0.0
2013-Jun-15 09:55N 13°58' W 049°42'0 0.5
2013-Jun-15 09:11N 13°58' W 049°41'1 1.3
2013-Jun-15 08:11N 13°58' W 049°40'0 0.6
2013-Jun-15 07:46N 13°58' W 049°40'0 0.3
2013-Jun-15 07:29N 13°58' W 049°40'4 3.9
2013-Jun-15 06:31N 13°59' W 049°36'0 0.0
2013-Jun-15 06:05N 13°59' W 049°36'0 0.0
2013-Jun-15 04:50N 13°59' W 049°36'0 0.0
2013-Jun-15 02:07N 13°59' W 049°36'1 1.4
2013-Jun-15 01:34N 13°59' W 049°35'0 2.1
2013-Jun-15 01:20N 13°59' W 049°36'0 9.6
2013-Jun-15 01:17N 13°59' W 049°35'0 0.2
2013-Jun-14 23:55N 13°60' W 049°35'0 2.9
2013-Jun-14 23:50N 13°59' W 049°35'1 2.4
2013-Jun-14 23:35N 13°60' W 049°35'1 0.7
2013-Jun-14 21:26N 14°00' W 049°33'1 0.6
2013-Jun-14 19:49N 14°00' W 049°32'1 1.2
2013-Jun-14 19:16N 14°01' W 049°32'0 0.1
2013-Jun-14 18:01N 14°01' W 049°32'0 2.2
2013-Jun-14 17:53N 14°01' W 049°32'0 0.0
2013-Jun-14 17:34N 14°01' W 049°32'1 0.5
2013-Jun-14 16:22N 14°01' W 049°31'3 0.9
2013-Jun-14 12:32N 14°02' W 049°28'0 0.0
2013-Jun-14 10:58N 14°02' W 049°28'0 0.0
2013-Jun-14 09:44N 14°02' W 049°28'1 0.4
2013-Jun-14 08:04N 14°02' W 049°27'0 0.0
2013-Jun-14 07:59N 14°02' W 049°27'0 4.9
2013-Jun-14 07:56N 14°02' W 049°27'0 0.0
2013-Jun-14 06:56N 14°02' W 049°27'0 0.0
2013-Jun-14 06:44N 14°02' W 049°27'4 9.3
2013-Jun-14 06:16N 14°05' W 049°24'3 2.9
2013-Jun-14 05:10N 14°03' W 049°27'317.1
2013-Jun-14 04:59N 14°05' W 049°24'1 0.4
2013-Jun-14 01:46N 14°04' W 049°23'1 9.1
2013-Jun-14 01:38N 14°05' W 049°24'1 1.9
2013-Jun-14 00:55N 14°04' W 049°23'0 0.5
2013-Jun-14 00:08N 14°04' W 049°23'0 1.6
2013-Jun-13 23:59N 14°04' W 049°23'0 0.2
2013-Jun-13 22:38N 14°04' W 049°23'2 2.5
2013-Jun-13 21:50N 14°04' W 049°21'1 0.3
2013-Jun-13 20:14N 14°03' W 049°21'0 0.0
2013-Jun-13 19:28N 14°03' W 049°21'1 0.8
2013-Jun-13 18:32N 14°04' W 049°20'0 0.2
2013-Jun-13 18:10N 14°04' W 049°20'0 1.4
2013-Jun-13 18:05N 14°04' W 049°20'0 0.0
2013-Jun-13 17:47N 14°04' W 049°20'2 1.8
2013-Jun-13 16:32N 14°04' W 049°18'1 0.3
2013-Jun-13 13:44N 14°04' W 049°17'0 0.0
2013-Jun-13 13:43N 14°04' W 049°17'1 0.6
2013-Jun-13 12:50N 14°04' W 049°17'1 7.6
2013-Jun-13 12:46N 14°04' W 049°16'133.2
2013-Jun-13 12:44N 14°04' W 049°15'1 1.7
2013-Jun-13 12:05N 14°04' W 049°16'1 1.2
2013-Jun-13 11:10N 14°04' W 049°15'1 1.4
2013-Jun-13 10:14N 14°04' W 049°14'1 0.5
2013-Jun-13 09:05N 14°04' W 049°14'116.5
2013-Jun-13 09:02N 14°04' W 049°13'0 0.4
2013-Jun-13 08:14N 14°04' W 049°14'236.9
2013-Jun-13 08:10N 14°05' W 049°11'0 0.0
2013-Jun-13 07:20N 14°05' W 049°11'2 5.6
2013-Jun-13 06:53N 14°07' W 049°10'1 0.7
2013-Jun-13 05:08N 14°06' W 049°09'0 0.0
2013-Jun-13 03:34N 14°06' W 049°09'0 0.0
2013-Jun-13 03:31N 14°06' W 049°09'0 0.0
2013-Jun-13 01:59N 14°06' W 049°09'1 0.8
2013-Jun-13 01:14N 14°06' W 049°09'0 0.0
2013-Jun-13 00:22N 14°06' W 049°09'120.4
2013-Jun-13 00:19N 14°06' W 049°08'1 0.7
2013-Jun-12 23:08N 14°07' W 049°07'2 3.5
2013-Jun-12 22:34N 14°07' W 049°05'0 0.0
2013-Jun-12 20:37N 14°07' W 049°05'2 1.7
2013-Jun-12 19:38N 14°07' W 049°03'0 0.0
2013-Jun-12 18:58N 14°07' W 049°03'0 0.1
2013-Jun-12 18:20N 14°07' W 049°03'1 2.2
2013-Jun-12 17:56N 14°07' W 049°03'2 1.8
2013-Jun-12 16:43N 14°08' W 049°01'0 0.1
2013-Jun-12 14:05N 14°08' W 049°01'1 0.7
2013-Jun-12 13:14N 14°08' W 049°00'0 1.6
2013-Jun-12 13:07N 14°08' W 048°60'1 0.7
2013-Jun-12 12:25N 14°08' W 048°59'1 0.7
2013-Jun-12 11:20N 14°08' W 048°59'1 1.3
2013-Jun-12 10:43N 14°07' W 048°58'1 1.1
2013-Jun-12 09:28N 14°09' W 048°57'0 0.7
2013-Jun-12 09:07N 14°09' W 048°57'1 2.0
2013-Jun-12 08:22N 14°09' W 048°56'124.0
2013-Jun-12 08:19N 14°10' W 048°55'2 3.4
2013-Jun-12 07:52N 14°09' W 048°56'211.6
2013-Jun-12 07:44N 14°10' W 048°55'1 0.6
2013-Jun-12 06:47N 14°09' W 048°55'211.3
2013-Jun-12 06:38N 14°10' W 048°54'0 0.0
2013-Jun-12 06:35N 14°10' W 048°54'0 0.0
2013-Jun-12 03:47N 14°10' W 048°54'0 4.3
2013-Jun-12 03:41N 14°11' W 048°54'0 0.0
2013-Jun-12 02:19N 14°11' W 048°54'2 2.4
2013-Jun-12 01:35N 14°11' W 048°52'0 0.0
2013-Jun-12 00:41N 14°11' W 048°52'1 6.7
2013-Jun-12 00:32N 14°12' W 048°51'1 1.2
2013-Jun-11 23:53N 14°11' W 048°51'1 0.8
2013-Jun-11 22:58N 14°12' W 048°51'0 0.0
2013-Jun-11 22:49N 14°12' W 048°51'3 0.9
2013-Jun-11 19:50N 14°13' W 048°49'0 0.5
2013-Jun-11 19:23N 14°13' W 048°48'2127.2
2013-Jun-11 19:22N 14°13' W 048°46'0 0.2
2013-Jun-11 18:10N 14°13' W 048°47'1 0.7
2013-Jun-11 16:53N 14°13' W 048°46'117.1
2013-Jun-11 16:50N 14°13' W 048°47'1 0.4
2013-Jun-11 14:25N 14°13' W 048°46'2 1.4
2013-Jun-11 13:13N 14°13' W 048°45'0 5.8
2013-Jun-11 13:08N 14°14' W 048°45'0 1.1
2013-Jun-11 12:49N 14°14' W 048°45'0 0.5
2013-Jun-11 11:47N 14°14' W 048°45'0 0.7
2013-Jun-11 11:32N 14°14' W 048°45'1 0.5
2013-Jun-11 09:50N 14°14' W 048°44'0 1.3
2013-Jun-11 09:38N 14°14' W 048°44'125.4
2013-Jun-11 09:35N 14°15' W 048°43'1 0.7
2013-Jun-11 08:32N 14°14' W 048°43'1 1.8
2013-Jun-11 08:07N 14°15' W 048°43'1 4.1
2013-Jun-11 07:56N 14°14' W 048°43'1 0.8
2013-Jun-11 06:47N 14°15' W 048°42'0 0.0
2013-Jun-11 05:34N 14°15' W 048°42'122.1
2013-Jun-11 05:31N 14°15' W 048°41'0 0.0
2013-Jun-11 05:11N 14°15' W 048°41'1 0.7
2013-Jun-11 03:59N 14°15' W 048°42'112.2
2013-Jun-11 03:55N 14°15' W 048°41'1 0.4
2013-Jun-11 01:55N 14°15' W 048°40'0 0.0
2013-Jun-11 01:02N 14°15' W 048°40'0 1.2
2013-Jun-11 00:59N 14°15' W 048°40'1 5.8
2013-Jun-11 00:44N 14°14' W 048°39'1 2.0
2013-Jun-11 00:14N 14°15' W 048°40'1 1.1
2013-Jun-10 23:20N 14°14' W 048°39'0 0.0
2013-Jun-10 23:19N 14°14' W 048°39'0 5.9
2013-Jun-10 23:16N 14°14' W 048°39'0 1.3
2013-Jun-10 23:02N 14°14' W 048°39'1 1.4
2013-Jun-10 22:32N 14°15' W 048°39'0 0.2
2013-Jun-10 21:26N 14°15' W 048°38'3 2.3
2013-Jun-10 19:55N 14°15' W 048°35'221.8
2013-Jun-10 19:49N 14°15' W 048°37'265.4
2013-Jun-10 19:47N 14°15' W 048°35'0 0.0
2013-Jun-10 18:22N 14°15' W 048°35'1 0.7
2013-Jun-10 17:05N 14°15' W 048°34'0 0.0
2013-Jun-10 16:35N 14°15' W 048°34'1 0.5
2013-Jun-10 15:22N 14°15' W 048°34'2 1.0
2013-Jun-10 13:51N 14°15' W 048°33'0 0.9
2013-Jun-10 13:25N 14°16' W 048°32'1 8.8
2013-Jun-10 13:19N 14°16' W 048°32'1 3.7
2013-Jun-10 13:05N 14°16' W 048°33'1 0.8
2013-Jun-10 12:14N 14°16' W 048°32'0 0.6
2013-Jun-10 11:45N 14°16' W 048°32'1 0.7
2013-Jun-10 10:09N 14°17' W 048°31'3 1.6
2013-Jun-10 08:34N 14°18' W 048°28'1 0.6
2013-Jun-10 07:01N 14°17' W 048°29'1 8.6
2013-Jun-10 06:55N 14°18' W 048°28'1 0.9
2013-Jun-10 05:46N 14°18' W 048°27'0 0.0
2013-Jun-10 05:21N 14°18' W 048°27'0 0.0
2013-Jun-10 04:04N 14°18' W 048°27'1 0.4
2013-Jun-10 01:24N 14°18' W 048°26'0 5.9
2013-Jun-10 01:21N 14°18' W 048°26'0 0.0
2013-Jun-10 00:57N 14°18' W 048°26'0 1.1
2013-Jun-10 00:36N 14°18' W 048°26'0 4.0
2013-Jun-10 00:30N 14°18' W 048°26'1 0.6
2013-Jun-09 23:10N 14°18' W 048°25'0 0.0
2013-Jun-09 23:01N 14°18' W 048°25'2 0.9
2013-Jun-09 20:12N 14°19' W 048°23'249.5
2013-Jun-09 20:10N 14°20' W 048°21'0 0.1
2013-Jun-09 18:33N 14°20' W 048°21'1 0.5
2013-Jun-09 17:16N 14°20' W 048°21'0 0.2
2013-Jun-09 16:46N 14°20' W 048°21'0 0.1
2013-Jun-09 15:34N 14°20' W 048°21'0 0.2
2013-Jun-09 14:12N 14°19' W 048°20'1 1.2
2013-Jun-09 13:42N 14°20' W 048°20'213.0
2013-Jun-09 13:34N 14°19' W 048°18'226.1
2013-Jun-09 13:30N 14°20' W 048°20'2 1.7
2013-Jun-09 12:27N 14°19' W 048°18'1 3.1
2013-Jun-09 12:03N 14°20' W 048°19'1 4.4
2013-Jun-09 11:46N 14°19' W 048°18'  

Dump ship's entire track history

sailing weather and tide predictions

Buoy 13519